createdAt,value
2023-02-26T00:01:44.797Z,3.10
2023-02-26T00:04:14.136Z,3.10
2023-02-26T00:06:55.911Z,3.10
2023-02-26T00:09:28.867Z,3.10
2023-02-26T00:12:02.162Z,3.20
2023-02-26T00:14:32.239Z,3.20
2023-02-26T00:17:18.068Z,3.20
2023-02-26T00:19:49.993Z,3.20
2023-02-26T00:22:21.963Z,3.20
2023-02-26T00:24:48.783Z,3.30
2023-02-26T00:27:18.034Z,3.20
2023-02-26T00:29:50.658Z,3.20
2023-02-26T00:32:18.243Z,3.20
2023-02-26T00:34:53.858Z,3.20
2023-02-26T00:38:05.725Z,3.20
2023-02-26T00:40:43.764Z,3.20
2023-02-26T00:43:26.509Z,3.20
2023-02-26T00:46:12.292Z,3.20
2023-02-26T00:48:53.681Z,3.20
2023-02-26T00:51:36.113Z,3.20
2023-02-26T00:54:25.954Z,3.20
2023-02-26T00:56:54.172Z,3.20
2023-02-26T00:59:24.857Z,3.20
2023-02-26T01:01:55.348Z,3.20
2023-02-26T01:04:27.961Z,3.20
2023-02-26T01:06:57.946Z,3.20
2023-02-26T01:09:30.203Z,3.20
2023-02-26T01:12:04.847Z,3.30
2023-02-26T01:14:37.416Z,3.30
2023-02-26T01:17:18.689Z,3.30
2023-02-26T01:20:01.695Z,3.40
2023-02-26T01:22:51.083Z,3.40
2023-02-26T01:25:46.531Z,3.40
2023-02-26T01:28:16.206Z,3.50
2023-02-26T01:30:46.346Z,3.50
2023-02-26T01:33:31.820Z,3.50
2023-02-26T01:36:10.068Z,3.60
2023-02-26T01:39:02.715Z,3.60
2023-02-26T01:42:22.318Z,3.60
2023-02-26T01:45:04.046Z,3.60
2023-02-26T01:47:41.132Z,3.70
2023-02-26T01:50:30.009Z,3.70
2023-02-26T01:53:24.188Z,3.70
2023-02-26T01:56:18.288Z,3.70
2023-02-26T01:58:49.959Z,3.70
2023-02-26T02:01:16.842Z,3.70
2023-02-26T02:03:43.938Z,3.70
2023-02-26T02:06:22.338Z,3.70
2023-02-26T02:08:54.387Z,3.70
2023-02-26T02:11:24.241Z,3.80
2023-02-26T02:13:56.854Z,3.80
2023-02-26T02:16:56.246Z,3.80
2023-02-26T02:20:35.001Z,3.80
2023-02-26T02:23:14.085Z,3.80
2023-02-26T02:26:14.725Z,3.80
2023-02-26T02:29:16.363Z,3.80
2023-02-26T02:32:00.094Z,3.80
2023-02-26T02:34:39.870Z,3.80
2023-02-26T02:37:24.945Z,3.80
2023-02-26T02:40:28.794Z,3.80
2023-02-26T02:43:06.242Z,3.90
2023-02-26T02:45:50.135Z,3.80
2023-02-26T02:48:26.650Z,3.80
2023-02-26T02:51:04.045Z,3.80
2023-02-26T02:53:43.407Z,3.80
2023-02-26T02:56:23.526Z,3.70
2023-02-26T02:59:02.205Z,3.80
2023-02-26T03:01:34.060Z,3.70
2023-02-26T03:04:16.178Z,3.70
2023-02-26T03:06:46.625Z,3.70
2023-02-26T03:09:19.088Z,3.60
2023-02-26T03:11:48.289Z,3.60
2023-02-26T03:14:15.906Z,3.60
2023-02-26T03:17:20.624Z,3.60
2023-02-26T03:20:29.797Z,3.60
2023-02-26T03:23:28.074Z,3.50
2023-02-26T03:26:11.664Z,3.50
2023-02-26T03:28:57.225Z,3.50
2023-02-26T03:31:40.533Z,3.50
2023-02-26T03:34:17.562Z,3.40
2023-02-26T03:37:15.545Z,3.40
2023-02-26T03:39:52.409Z,3.40
2023-02-26T03:42:51.500Z,3.30
2023-02-26T03:45:33.182Z,3.30
2023-02-26T03:48:07.734Z,3.30
2023-02-26T03:50:48.119Z,3.30
2023-02-26T03:53:52.071Z,3.20
2023-02-26T03:56:32.967Z,3.20
2023-02-26T03:59:28.494Z,3.20
2023-02-26T04:02:15.747Z,3.20
2023-02-26T04:04:49.348Z,3.10
2023-02-26T04:07:22.789Z,3.10
2023-02-26T04:09:52.959Z,3.10
2023-02-26T04:12:27.267Z,3.10
2023-02-26T04:14:57.238Z,3.10
2023-02-26T04:17:28.599Z,3.10
2023-02-26T04:19:56.535Z,3.00
2023-02-26T04:22:25.961Z,3.00
2023-02-26T04:24:55.180Z,3.00
2023-02-26T04:27:24.050Z,3.00
2023-02-26T04:29:51.193Z,2.90
2023-02-26T04:32:20.200Z,2.90
2023-02-26T04:34:47.074Z,2.90
2023-02-26T04:37:19.811Z,2.90
2023-02-26T04:39:47.188Z,2.90
2023-02-26T04:42:16.356Z,2.80
2023-02-26T04:44:45.811Z,2.80
2023-02-26T04:47:16.059Z,2.80
2023-02-26T04:49:46.251Z,2.80
2023-02-26T04:52:20.261Z,2.70
2023-02-26T04:54:52.738Z,2.70
2023-02-26T04:57:19.608Z,2.70
2023-02-26T04:59:49.089Z,2.70
2023-02-26T05:02:19.068Z,2.70
2023-02-26T05:04:52.977Z,2.70
2023-02-26T05:07:20.003Z,2.60
2023-02-26T05:09:49.244Z,2.70
2023-02-26T05:12:16.132Z,2.60
2023-02-26T05:14:49.907Z,2.60
2023-02-26T05:17:16.797Z,2.60
2023-02-26T05:19:43.692Z,2.60
2023-02-26T05:22:10.517Z,2.50
2023-02-26T05:24:41.823Z,2.50
2023-02-26T05:27:08.639Z,2.50
2023-02-26T05:29:41.003Z,2.60
2023-02-26T05:32:11.132Z,2.50
2023-02-26T05:34:38.082Z,2.50
2023-02-26T05:37:07.035Z,2.50
2023-02-26T05:39:36.185Z,2.50
2023-02-26T05:42:05.610Z,2.50
2023-02-26T05:44:32.424Z,2.50
2023-02-26T05:46:59.268Z,2.50
2023-02-26T05:49:26.082Z,2.60
2023-02-26T05:51:55.301Z,2.50
2023-02-26T05:54:25.252Z,2.50
2023-02-26T05:56:56.842Z,2.50
2023-02-26T05:59:26.081Z,2.50
2023-02-26T06:01:53.128Z,2.60
2023-02-26T06:04:24.669Z,2.60
2023-02-26T06:06:51.768Z,2.60
2023-02-26T06:09:20.807Z,2.60
2023-02-26T06:11:52.693Z,2.60
2023-02-26T06:14:19.611Z,2.70
2023-02-26T06:16:48.601Z,2.60
2023-02-26T06:19:15.615Z,2.70
2023-02-26T06:21:42.458Z,2.70
2023-02-26T06:24:09.439Z,2.70
2023-02-26T06:26:36.332Z,2.70
2023-02-26T06:29:05.367Z,2.70
2023-02-26T06:31:32.270Z,2.70
2023-02-26T06:34:01.293Z,2.70
2023-02-26T06:36:32.568Z,2.70
2023-02-26T06:39:03.917Z,2.70
2023-02-26T06:41:35.073Z,2.70
2023-02-26T06:44:04.371Z,2.70
2023-02-26T06:46:33.757Z,2.70
2023-02-26T06:49:00.638Z,2.70
2023-02-26T06:51:27.496Z,2.70
2023-02-26T06:54:00.996Z,2.70
2023-02-26T06:56:28.372Z,2.70
2023-02-26T06:58:55.413Z,2.60
2023-02-26T07:01:22.542Z,2.70
2023-02-26T07:03:51.712Z,2.70
2023-02-26T07:06:27.495Z,2.70
2023-02-26T07:08:59.680Z,2.70
2023-02-26T07:11:29.156Z,2.70
2023-02-26T07:13:58.365Z,2.70
2023-02-26T07:16:25.684Z,2.70
2023-02-26T07:18:52.626Z,2.80
2023-02-26T07:21:19.655Z,2.80
2023-02-26T07:23:48.764Z,2.80
2023-02-26T07:26:17.448Z,2.80
2023-02-26T07:28:44.239Z,2.80
2023-02-26T07:31:11.308Z,2.80
2023-02-26T07:33:39.643Z,2.90
2023-02-26T07:36:11.972Z,2.90
2023-02-26T07:38:43.652Z,2.90
2023-02-26T07:41:15.004Z,2.90
2023-02-26T07:43:44.426Z,3.00
2023-02-26T07:46:13.926Z,3.10
2023-02-26T07:48:41.325Z,3.10
2023-02-26T07:51:11.037Z,3.20
2023-02-26T07:53:41.030Z,3.20
2023-02-26T07:56:10.110Z,3.30
2023-02-26T07:58:39.057Z,3.40
2023-02-26T08:01:10.259Z,3.40
2023-02-26T08:03:39.662Z,3.50
2023-02-26T08:06:08.797Z,3.50
2023-02-26T08:08:39.986Z,3.60
2023-02-26T08:11:11.460Z,3.70
2023-02-26T08:13:40.482Z,3.70
2023-02-26T08:16:09.714Z,3.70
2023-02-26T08:18:39.273Z,3.70
2023-02-26T08:21:06.329Z,3.80
2023-02-26T08:23:35.542Z,3.80
2023-02-26T08:26:10.772Z,3.80
2023-02-26T08:28:37.978Z,3.80
2023-02-26T08:31:11.750Z,3.80
2023-02-26T08:33:41.336Z,3.80
2023-02-26T08:36:11.219Z,3.80
2023-02-26T08:38:38.251Z,3.80
2023-02-26T08:41:08.287Z,3.80
2023-02-26T08:43:42.112Z,3.80
2023-02-26T08:46:11.253Z,3.80
2023-02-26T08:48:38.105Z,3.80
2023-02-26T08:51:10.132Z,3.80
2023-02-26T08:53:37.056Z,3.80
2023-02-26T08:56:04.166Z,3.80
2023-02-26T08:58:33.423Z,3.80
2023-02-26T09:01:02.549Z,3.80
2023-02-26T09:03:29.501Z,3.90
2023-02-26T09:05:56.358Z,3.90
2023-02-26T09:08:25.976Z,3.90
2023-02-26T09:10:59.113Z,3.90
2023-02-26T09:13:25.996Z,3.90
2023-02-26T09:15:55.502Z,3.90
2023-02-26T09:18:27.829Z,3.90
2023-02-26T09:20:59.588Z,4.00
2023-02-26T09:23:29.565Z,4.00
2023-02-26T09:26:00.152Z,4.10
2023-02-26T09:28:27.213Z,4.10
2023-02-26T09:30:59.196Z,4.20
2023-02-26T09:33:28.489Z,4.30
2023-02-26T09:35:57.310Z,4.30
2023-02-26T09:38:31.220Z,4.40
2023-02-26T09:41:07.250Z,4.40
2023-02-26T09:44:10.994Z,4.60
2023-02-26T09:46:55.909Z,4.70
2023-02-26T09:50:02.047Z,4.70
2023-02-26T09:52:45.160Z,4.80
2023-02-26T09:55:31.340Z,4.90
2023-02-26T09:58:12.373Z,4.90
2023-02-26T10:00:57.503Z,4.90
2023-02-26T10:03:36.998Z,4.90
2023-02-26T10:06:31.877Z,5.00
2023-02-26T10:09:38.114Z,5.10
2023-02-26T10:12:16.237Z,5.10
2023-02-26T10:15:09.455Z,5.20
2023-02-26T10:18:17.410Z,5.20
2023-02-26T10:21:01.368Z,5.30
2023-02-26T10:23:37.220Z,5.50
2023-02-26T10:26:45.503Z,5.70
2023-02-26T10:29:45.622Z,5.80
2023-02-26T10:33:01.538Z,6.00
2023-02-26T10:35:37.489Z,6.30
2023-02-26T10:38:18.547Z,6.60
2023-02-26T10:40:55.525Z,6.80
2023-02-26T10:43:32.030Z,7.00
2023-02-26T10:46:13.271Z,7.20
2023-02-26T10:49:32.825Z,7.40
2023-02-26T10:52:19.837Z,7.60
2023-02-26T10:55:38.858Z,8.00
2023-02-26T10:58:25.360Z,8.30
2023-02-26T11:00:56.830Z,8.60
2023-02-26T11:03:40.234Z,8.70
2023-02-26T11:06:16.881Z,8.80
2023-02-26T11:08:50.842Z,9.00
2023-02-26T11:11:46.638Z,9.20
2023-02-26T11:14:15.404Z,9.20
2023-02-26T11:17:10.322Z,9.30
2023-02-26T11:19:42.373Z,9.30
2023-02-26T11:22:14.861Z,9.20
2023-02-26T11:24:47.489Z,9.20
2023-02-26T11:27:24.221Z,9.10
2023-02-26T11:29:59.475Z,9.00
2023-02-26T11:32:37.780Z,8.90
2023-02-26T11:35:13.835Z,8.90
2023-02-26T11:37:50.178Z,8.80
2023-02-26T11:40:23.804Z,8.80
2023-02-26T11:43:07.730Z,8.80
2023-02-26T11:45:46.214Z,8.70
2023-02-26T11:48:48.401Z,8.60
2023-02-26T11:51:21.507Z,8.60
2023-02-26T11:53:57.618Z,8.60
2023-02-26T11:56:39.025Z,8.70
2023-02-26T11:59:18.370Z,8.80
2023-02-26T12:01:45.437Z,9.10
2023-02-26T12:04:18.172Z,9.20
2023-02-26T12:06:51.998Z,9.40
2023-02-26T12:09:24.597Z,9.50
2023-02-26T12:12:11.453Z,9.50
2023-02-26T12:15:36.202Z,9.60
2023-02-26T12:18:24.825Z,9.70
2023-02-26T12:21:03.271Z,9.80
2023-02-26T12:24:26.530Z,9.80
2023-02-26T12:27:52.722Z,9.70
2023-02-26T12:30:54.288Z,9.70
2023-02-26T12:33:42.829Z,9.60
2023-02-26T12:36:49.491Z,9.60
2023-02-26T12:39:43.358Z,9.40
2023-02-26T12:42:25.092Z,9.30
2023-02-26T12:45:29.169Z,9.10
2023-02-26T12:48:32.676Z,9.00
2023-02-26T12:51:26.776Z,8.90
2023-02-26T12:54:18.385Z,8.80
2023-02-26T12:57:20.746Z,8.70
2023-02-26T13:00:15.917Z,8.70
2023-02-26T13:03:13.039Z,8.60
2023-02-26T13:06:16.404Z,8.60
2023-02-26T13:09:10.425Z,8.60
2023-02-26T13:12:30.211Z,8.60
2023-02-26T13:15:19.550Z,8.70
2023-02-26T13:18:11.891Z,8.70
2023-02-26T13:21:00.271Z,8.80
2023-02-26T13:23:40.970Z,8.80
2023-02-26T13:26:16.510Z,8.80
2023-02-26T13:28:59.440Z,8.80
2023-02-26T13:31:37.793Z,8.70
2023-02-26T13:34:38.562Z,8.80
2023-02-26T13:37:15.306Z,8.70
2023-02-26T13:40:08.474Z,8.70
2023-02-26T13:43:14.490Z,8.60
2023-02-26T13:46:05.442Z,8.50
2023-02-26T13:49:15.801Z,8.40
2023-02-26T13:51:49.170Z,8.40
2023-02-26T13:54:44.820Z,8.30
2023-02-26T13:57:36.258Z,8.40
2023-02-26T14:00:35.034Z,8.60
2023-02-26T14:03:34.584Z,8.90
2023-02-26T14:06:20.325Z,9.20
2023-02-26T14:08:54.159Z,9.60
2023-02-26T14:11:46.939Z,10.00
2023-02-26T14:14:22.220Z,10.10
2023-02-26T14:17:11.986Z,10.20
2023-02-26T14:20:09.443Z,10.20
2023-02-26T14:22:43.072Z,10.10
2023-02-26T14:25:15.702Z,10.00
2023-02-26T14:27:47.156Z,10.00
2023-02-26T14:30:30.681Z,10.00
2023-02-26T14:32:59.735Z,10.10
2023-02-26T14:35:35.004Z,10.20
2023-02-26T14:38:30.670Z,10.40
2023-02-26T14:41:06.765Z,10.60
2023-02-26T14:43:44.111Z,10.90
2023-02-26T14:46:16.743Z,11.00
2023-02-26T14:48:46.637Z,11.00
2023-02-26T14:51:54.451Z,10.90
2023-02-26T14:55:08.072Z,10.90
2023-02-26T14:58:08.828Z,10.70
2023-02-26T15:01:24.196Z,10.70
2023-02-26T15:04:14.657Z,10.50
2023-02-26T15:07:24.774Z,10.40
2023-02-26T15:10:32.411Z,10.30
2023-02-26T15:13:11.897Z,10.10
2023-02-26T15:16:04.280Z,9.90
2023-02-26T15:18:48.947Z,9.70
2023-02-26T15:21:30.511Z,9.60
2023-02-26T15:23:59.948Z,9.30
2023-02-26T15:26:49.044Z,9.20
2023-02-26T15:29:23.506Z,9.10
2023-02-26T15:32:03.308Z,8.90
2023-02-26T15:34:35.158Z,8.80
2023-02-26T15:37:06.865Z,8.60
2023-02-26T15:39:41.503Z,8.60
2023-02-26T15:42:10.412Z,8.40
2023-02-26T15:44:55.194Z,8.30
2023-02-26T15:47:30.989Z,8.20
2023-02-26T15:50:01.201Z,8.00
2023-02-26T15:52:31.197Z,7.90
2023-02-26T15:55:06.355Z,7.90
2023-02-26T15:57:33.602Z,7.80
2023-02-26T16:00:29.809Z,7.70
2023-02-26T16:02:58.710Z,7.60
2023-02-26T16:05:32.550Z,7.60
2023-02-26T16:08:00.062Z,7.50
2023-02-26T16:10:42.634Z,7.50
2023-02-26T16:13:27.709Z,7.50
2023-02-26T16:16:03.469Z,7.50
2023-02-26T16:18:33.777Z,7.40
2023-02-26T16:21:07.300Z,7.40
2023-02-26T16:23:48.114Z,7.40
2023-02-26T16:26:36.044Z,7.40
2023-02-26T16:29:16.573Z,7.40
2023-02-26T16:31:49.101Z,7.30
2023-02-26T16:34:40.728Z,7.20
2023-02-26T16:37:28.858Z,7.10
2023-02-26T16:40:26.473Z,7.00
2023-02-26T16:43:04.594Z,7.00
2023-02-26T16:45:39.556Z,6.90
2023-02-26T16:48:16.762Z,6.80
2023-02-26T16:50:58.137Z,6.80
2023-02-26T16:53:43.336Z,6.70
2023-02-26T16:56:19.668Z,6.70
2023-02-26T16:59:01.783Z,6.60
2023-02-26T17:01:42.257Z,6.60
2023-02-26T17:04:18.143Z,6.50
2023-02-26T17:06:47.548Z,6.50
2023-02-26T17:09:31.569Z,6.40
2023-02-26T17:12:45.630Z,6.40
2023-02-26T17:15:40.778Z,6.30
2023-02-26T17:18:13.350Z,6.30
2023-02-26T17:20:40.950Z,6.30
2023-02-26T17:23:13.249Z,6.20
2023-02-26T17:25:50.519Z,6.20
2023-02-26T17:28:26.641Z,6.20
2023-02-26T17:30:58.417Z,6.20
2023-02-26T17:33:25.393Z,6.10
2023-02-26T17:36:07.677Z,6.20
2023-02-26T17:38:36.597Z,6.10
2023-02-26T17:41:05.946Z,6.10
2023-02-26T17:43:33.550Z,6.10
2023-02-26T17:46:02.600Z,6.10
2023-02-26T17:48:30.847Z,6.10
2023-02-26T17:51:03.359Z,6.00
2023-02-26T17:53:40.739Z,6.00
2023-02-26T17:56:30.013Z,6.00
2023-02-26T17:58:59.004Z,6.00
2023-02-26T18:01:31.465Z,6.00
2023-02-26T18:04:00.761Z,5.90
2023-02-26T18:06:40.097Z,6.00
2023-02-26T18:09:07.022Z,5.90
2023-02-26T18:11:34.150Z,5.90
2023-02-26T18:14:01.238Z,5.90
2023-02-26T18:16:39.083Z,5.90
2023-02-26T18:19:11.321Z,5.90
2023-02-26T18:21:40.538Z,5.90
2023-02-26T18:24:08.035Z,5.90
2023-02-26T18:26:44.128Z,5.90
2023-02-26T18:29:14.004Z,5.80
2023-02-26T18:31:43.460Z,5.90
2023-02-26T18:34:10.434Z,5.90
2023-02-26T18:36:42.096Z,5.80
2023-02-26T18:39:15.168Z,5.80
2023-02-26T18:41:44.569Z,5.80
2023-02-26T18:44:13.570Z,5.80
2023-02-26T18:46:41.692Z,5.80
2023-02-26T18:49:22.306Z,5.70
2023-02-26T18:51:49.261Z,5.70
2023-02-26T18:54:16.086Z,5.70
2023-02-26T18:56:47.029Z,5.60
2023-02-26T18:59:13.953Z,5.60
2023-02-26T19:01:41.392Z,5.60
2023-02-26T19:04:08.247Z,5.60
2023-02-26T19:06:35.231Z,5.50
2023-02-26T19:09:05.795Z,5.50
2023-02-26T19:11:35.574Z,5.50
2023-02-26T19:14:02.555Z,5.50
2023-02-26T19:16:34.903Z,5.50
2023-02-26T19:19:05.246Z,5.50
2023-02-26T19:21:39.125Z,5.50
2023-02-26T19:24:09.586Z,5.50
2023-02-26T19:26:42.096Z,5.50
2023-02-26T19:29:16.331Z,5.50
2023-02-26T19:31:46.924Z,5.50
2023-02-26T19:34:14.693Z,5.40
2023-02-26T19:36:48.159Z,5.40
2023-02-26T19:39:21.244Z,5.40
2023-02-26T19:41:50.310Z,5.40
2023-02-26T19:44:23.793Z,5.40
2023-02-26T19:46:56.264Z,5.40
2023-02-26T19:49:25.508Z,5.40
2023-02-26T19:51:53.202Z,5.30
2023-02-26T19:54:22.763Z,5.30
2023-02-26T19:56:49.935Z,5.30
2023-02-26T19:59:19.519Z,5.30
2023-02-26T20:01:49.554Z,5.30
2023-02-26T20:04:19.325Z,5.20
2023-02-26T20:06:46.339Z,5.20
2023-02-26T20:09:14.486Z,5.20
2023-02-26T20:11:41.671Z,5.20
2023-02-26T20:14:10.960Z,5.10
2023-02-26T20:16:37.920Z,5.00
2023-02-26T20:19:11.901Z,5.00
2023-02-26T20:21:43.782Z,4.90
2023-02-26T20:24:11.140Z,4.90
2023-02-26T20:26:40.415Z,4.80
2023-02-26T20:29:09.615Z,4.70
2023-02-26T20:31:38.981Z,4.70
2023-02-26T20:34:08.370Z,4.60
2023-02-26T20:36:35.287Z,4.50
2023-02-26T20:39:02.471Z,4.50
2023-02-26T20:41:31.957Z,4.40
2023-02-26T20:44:03.488Z,4.40
2023-02-26T20:46:35.694Z,4.30
2023-02-26T20:49:11.349Z,4.30
2023-02-26T20:51:40.781Z,4.30
2023-02-26T20:54:14.958Z,4.20
2023-02-26T20:56:45.151Z,4.20
2023-02-26T20:59:15.452Z,4.20
2023-02-26T21:01:46.367Z,4.10
2023-02-26T21:04:15.942Z,4.10
2023-02-26T21:06:43.602Z,4.00
2023-02-26T21:09:15.192Z,4.00
2023-02-26T21:11:44.676Z,4.00
2023-02-26T21:14:12.082Z,3.90
2023-02-26T21:16:41.515Z,3.90
2023-02-26T21:19:08.894Z,3.90
2023-02-26T21:21:40.139Z,3.90
2023-02-26T21:24:07.581Z,3.80
2023-02-26T21:26:36.933Z,3.80
2023-02-26T21:29:06.334Z,3.80
2023-02-26T21:31:38.547Z,3.80
2023-02-26T21:34:32.132Z,3.80
2023-02-26T21:36:57.249Z,3.70
2023-02-26T21:39:24.445Z,3.70
2023-02-26T21:41:53.336Z,3.70
2023-02-26T21:44:20.407Z,3.60
2023-02-26T21:46:47.315Z,3.60
2023-02-26T21:49:19.132Z,3.60
2023-02-26T21:51:48.298Z,3.50
2023-02-26T21:54:17.607Z,3.50
2023-02-26T21:56:44.443Z,3.50
2023-02-26T21:59:11.274Z,3.50
2023-02-26T22:01:40.741Z,3.50
2023-02-26T22:04:14.705Z,3.40
2023-02-26T22:06:44.284Z,3.40
2023-02-26T22:09:11.259Z,3.40
2023-02-26T22:11:39.378Z,3.40
2023-02-26T22:14:08.746Z,3.30
2023-02-26T22:16:40.272Z,3.40
2023-02-26T22:19:11.822Z,3.30
2023-02-26T22:21:41.005Z,3.30
2023-02-26T22:24:08.466Z,3.30
2023-02-26T22:26:35.377Z,3.20
2023-02-26T22:29:06.868Z,3.20
2023-02-26T22:31:36.636Z,3.20
2023-02-26T22:34:03.496Z,3.20
2023-02-26T22:36:34.615Z,3.20
2023-02-26T22:39:05.861Z,3.10
2023-02-26T22:41:36.088Z,3.10
2023-02-26T22:44:08.140Z,3.10
2023-02-26T22:46:35.112Z,3.10
2023-02-26T22:49:02.039Z,3.10
2023-02-26T22:51:35.352Z,3.10
2023-02-26T22:54:12.008Z,3.10
2023-02-26T22:56:41.180Z,3.00
2023-02-26T22:59:10.297Z,3.10
2023-02-26T23:01:41.831Z,3.00
2023-02-26T23:04:08.980Z,3.00
2023-02-26T23:06:43.006Z,3.00
2023-02-26T23:09:09.841Z,3.00
2023-02-26T23:11:36.742Z,2.90
2023-02-26T23:14:08.472Z,2.90
2023-02-26T23:16:37.483Z,2.90
2023-02-26T23:19:05.330Z,2.90
2023-02-26T23:21:32.566Z,2.90
2023-02-26T23:23:59.519Z,2.90
2023-02-26T23:26:31.761Z,2.80
2023-02-26T23:28:58.725Z,2.80
2023-02-26T23:31:32.385Z,2.80
2023-02-26T23:34:06.825Z,2.80
2023-02-26T23:36:36.261Z,2.70
2023-02-26T23:39:06.484Z,2.70
2023-02-26T23:41:36.051Z,2.70
2023-02-26T23:44:10.133Z,2.60
2023-02-26T23:46:37.575Z,2.60
2023-02-26T23:49:06.674Z,2.60
2023-02-26T23:51:35.904Z,2.60
2023-02-26T23:54:05.408Z,2.60
2023-02-26T23:56:34.525Z,2.50
2023-02-26T23:59:07.404Z,2.50
